Time;durP1;ratioP1;P1;durP2;ratioP2;P2;SDS_P1;SDS_P2;PMS_P1;PMS_P2;Temp;Humidity;BMP_temperature;BMP_pressure;BME280_temperature;BME280_humidity;BME280_pressure;Samples;Min_cycle;Max_cycle;Signal;HPM_P1;HPM_P2
2021/06/09 00:02:10;;;;;;;0.43;0.05;;;23.10;51.20;;;;;;4984689;28;20477;-85
2021/06/09 00:04:36;;;;;;;0.43;0.10;;;23.10;51.30;;;;;;4975476;28;20043;-85
2021/06/09 00:07:02;;;;;;;0.28;0.03;;;23.10;51.40;;;;;;5008695;28;20031;-84
2021/06/09 00:09:29;;;;;;;0.57;0.20;;;23.00;51.50;;;;;;5008866;28;20027;-85
2021/06/09 00:11:55;;;;;;;0.88;0.10;;;23.00;51.70;;;;;;4992534;28;20045;-85
2021/06/09 00:14:21;;;;;;;1.13;0.20;;;22.90;51.70;;;;;;4974138;28;20054;-84
2021/06/09 00:16:47;;;;;;;0.20;0.00;;;22.90;51.90;;;;;;4973436;28;20503;-85
2021/06/09 00:19:13;;;;;;;0.47;0.20;;;22.80;52.00;;;;;;4972040;28;20035;-85
2021/06/09 00:21:40;;;;;;;0.25;0.00;;;22.80;52.10;;;;;;4973023;28;20042;-85
2021/06/09 00:24:07;;;;;;;0.20;0.10;;;22.80;52.30;;;;;;4971816;28;20043;-85
2021/06/09 00:26:33;;;;;;;0.30;0.00;;;22.70;52.30;;;;;;4972157;28;20039;-84
2021/06/09 00:28:59;;;;;;;0.93;0.10;;;22.70;52.50;;;;;;4973267;28;20033;-84
2021/06/09 00:31:25;;;;;;;0.22;0.10;;;22.60;52.50;;;;;;4987972;28;20045;-85
2021/06/09 00:33:51;;;;;;;0.57;0.28;;;22.60;52.60;;;;;;4987654;28;20035;-85
2021/06/09 00:36:17;;;;;;;0.63;0.20;;;22.60;52.70;;;;;;4987887;28;20480;-84
2021/06/09 00:38:43;;;;;;;0.73;0.20;;;22.60;52.90;;;;;;4987915;28;20046;-85
2021/06/09 00:41:09;;;;;;;0.45;0.10;;;22.50;52.90;;;;;;4954749;28;20480;-85
2021/06/09 00:43:36;;;;;;;0.60;0.13;;;22.50;53.00;;;;;;4971930;28;20031;-85
2021/06/09 00:46:07;;;;;;;0.40;0.10;;;22.50;53.10;;;;;;4987582;28;20043;-85
2021/06/09 00:48:34;;;;;;;0.20;0.00;;;22.40;53.20;;;;;;4987531;28;20030;-85
2021/06/09 00:51:02;;;;;;;0.32;0.15;;;22.40;53.20;;;;;;4990645;28;20030;-85
2021/06/09 00:53:28;;;;;;;1.20;0.40;;;22.40;53.40;;;;;;4975351;28;20026;-83
2021/06/09 00:56:12;;;;;;;0.30;0.00;;;22.30;53.40;;;;;;4975667;28;20046;-84
2021/06/09 00:58:39;;;;;;;1.17;0.20;;;22.30;53.70;;;;;;5004719;28;20035;-84
2021/06/09 01:01:06;;;;;;;0.15;0.05;;;22.30;53.60;;;;;;4991369;28;20039;-85
2021/06/09 01:03:33;;;;;;;1.42;0.35;;;22.20;53.70;;;;;;4990837;28;20029;-85
2021/06/09 01:05:59;;;;;;;0.32;0.20;;;22.20;53.70;;;;;;4975194;28;20027;-84
2021/06/09 01:08:25;;;;;;;0.00;0.00;;;22.20;53.80;;;;;;4958089;28;20042;-85
2021/06/09 01:10:52;;;;;;;0.68;0.20;;;22.20;54.00;;;;;;4975082;28;20511;-85
2021/06/09 01:13:23;;;;;;;0.38;0.10;;;22.20;54.00;;;;;;4956278;28;20508;-84
2021/06/09 01:15:50;;;;;;;;;;;22.10;54.10;;;;;;4959010;28;20035;-85
2021/06/09 01:18:16;;;;;;;0.63;0.10;;;22.10;54.20;;;;;;4974555;28;19906;-85
2021/06/09 01:20:42;;;;;;;1.05;0.45;;;22.10;54.10;;;;;;4974914;28;20022;-84
2021/06/09 01:23:08;;;;;;;0.40;0.10;;;22.00;54.20;;;;;;4974924;28;20030;-84
2021/06/09 01:25:35;;;;;;;1.27;0.13;;;22.00;54.30;;;;;;4976258;28;20050;-85
2021/06/09 01:28:01;;;;;;;0.20;0.00;;;21.90;54.40;;;;;;4990994;28;20027;-84
2021/06/09 01:30:27;;;;;;;0.85;0.28;;;21.90;54.50;;;;;;4990574;28;20035;-85
2021/06/09 01:32:53;;;;;;;0.25;0.17;;;21.90;54.60;;;;;;4990356;28;20472;-84
2021/06/09 01:35:20;;;;;;;0.20;0.10;;;21.90;54.60;;;;;;4975795;28;20041;-84
2021/06/09 01:37:46;;;;;;;0.30;0.10;;;21.90;54.70;;;;;;4958830;28;20034;-85
2021/06/09 01:40:14;;;;;;;0.22;0.10;;;21.90;54.80;;;;;;4991278;28;20034;-85
2021/06/09 01:42:41;;;;;;;0.60;0.28;;;21.80;54.80;;;;;;4974394;28;20026;-85
2021/06/09 01:45:08;;;;;;;1.33;0.10;;;21.80;54.90;;;;;;4989942;28;20058;-84
2021/06/09 01:47:34;;;;;;;0.55;0.20;;;21.80;54.90;;;;;;4974133;28;20023;-84
2021/06/09 01:50:03;;;;;;;0.38;0.10;;;21.80;55.00;;;;;;4958466;28;20492;-84
2021/06/09 01:52:29;;;;;;;0.32;0.10;;;21.80;55.10;;;;;;4975037;28;20042;-85
2021/06/09 01:54:55;;;;;;;2.05;0.17;;;21.80;55.20;;;;;;4957286;28;20400;-85
2021/06/09 01:57:21;;;;;;;0.28;0.10;;;21.80;55.30;;;;;;4958308;28;20046;-85
2021/06/09 01:59:47;;;;;;;0.38;0.10;;;21.70;55.30;;;;;;4974200;28;20042;-85
2021/06/09 02:02:14;;;;;;;0.10;0.00;;;21.70;55.40;;;;;;4971953;28;20046;-85
2021/06/09 02:04:41;;;;;;;0.20;0.20;;;21.70;55.40;;;;;;4981687;28;20046;-85
2021/06/09 02:07:07;;;;;;;1.17;0.68;;;21.70;55.50;;;;;;4988851;28;20025;-82
2021/06/09 02:09:35;;;;;;;0.55;0.20;;;21.70;55.60;;;;;;4972180;28;20103;-85
2021/06/09 02:12:01;;;;;;;0.90;0.25;;;21.70;55.70;;;;;;4972146;28;20019;-84
2021/06/09 02:14:27;;;;;;;1.00;0.30;;;21.60;55.70;;;;;;4988084;28;20393;-85
2021/06/09 02:16:53;;;;;;;2.95;0.43;;;21.60;55.80;;;;;;4986553;28;20039;-84
2021/06/09 02:19:23;;;;;;;0.50;0.10;;;21.60;55.80;;;;;;4972539;28;20042;-85
2021/06/09 02:21:49;;;;;;;0.73;0.30;;;21.50;55.90;;;;;;4984895;28;20039;-85
2021/06/09 02:24:15;;;;;;;0.30;0.10;;;21.50;55.90;;;;;;4971855;28;20047;-84
2021/06/09 02:26:42;;;;;;;0.22;0.05;;;21.50;56.10;;;;;;4969226;28;20388;-85
2021/06/09 02:29:09;;;;;;;0.47;0.10;;;21.40;56.10;;;;;;4970033;28;20046;-84
2021/06/09 02:31:39;;;;;;;0.20;0.00;;;21.40;56.20;;;;;;4955579;28;20519;-86
2021/06/09 02:34:12;;;;;;;0.45;0.10;;;21.40;56.40;;;;;;4986008;28;20030;-85
2021/06/09 02:36:39;;;;;;;1.13;0.22;;;21.40;56.40;;;;;;4985406;28;20034;-85
2021/06/09 02:39:05;;;;;;;0.45;0.10;;;21.30;56.40;;;;;;4954143;28;20489;-84
2021/06/09 02:41:31;;;;;;;1.10;0.20;;;21.30;56.40;;;;;;4973402;28;20050;-85
2021/06/09 02:44:00;;;;;;;0.28;0.10;;;21.30;56.60;;;;;;4973251;28;20041;-83
2021/06/09 02:46:29;;;;;;;2.08;0.22;;;21.20;56.60;;;;;;4989209;28;20382;-84
2021/06/09 02:49:00;;;;;;;0.65;0.32;;;21.20;56.70;;;;;;4989558;28;20030;-84
2021/06/09 02:51:46;;;;;;;0.40;0.10;;;21.20;56.70;;;;;;4954218;28;20404;-85
2021/06/09 02:54:30;;;;;;;0.45;0.10;;;21.10;56.70;;;;;;4966958;28;20026;-85
2021/06/09 02:57:05;;;;;;;1.77;0.20;;;21.10;56.70;;;;;;4974456;28;20039;-85
2021/06/09 02:59:38;;;;;;;2.42;0.55;;;21.10;56.80;;;;;;4972817;28;20027;-84
2021/06/09 03:02:21;;;;;;;2.28;0.25;;;21.00;56.80;;;;;;4989729;28;20039;-85
2021/06/09 03:05:03;;;;;;;0.68;0.17;;;21.00;56.80;;;;;;5003697;28;20385;-84
2021/06/09 03:07:36;;;;;;;0.47;0.13;;;21.00;56.90;;;;;;4989451;28;20035;-85
2021/06/09 03:10:27;;;;;;;0.10;0.00;;;21.00;56.90;;;;;;4988820;28;20038;-85
2021/06/09 03:13:04;;;;;;;0.45;0.10;;;20.90;57.00;;;;;;4972586;28;20039;-85
2021/06/09 03:15:40;;;;;;;0.32;0.10;;;20.90;57.00;;;;;;4972301;28;20091;-85
2021/06/09 03:18:22;;;;;;;1.40;0.30;;;20.80;57.00;;;;;;4988999;28;20010;-85
2021/06/09 03:21:01;;;;;;;0.20;0.10;;;20.80;57.20;;;;;;4972697;28;20030;-85
2021/06/09 03:23:36;;;;;;;0.32;0.08;;;20.70;57.20;;;;;;4972714;28;20026;-85
2021/06/09 03:26:14;;;;;;;2.95;0.25;;;20.70;57.30;;;;;;4972569;28;20051;-84
2021/06/09 03:28:47;;;;;;;0.38;0.10;;;20.70;57.40;;;;;;4985468;28;20034;-84
2021/06/09 03:31:17;;;;;;;0.20;0.00;;;20.60;57.50;;;;;;4983120;28;20045;-84
2021/06/09 03:33:44;;;;;;;0.50;0.10;;;20.60;57.50;;;;;;4962894;28;20035;-84
2021/06/09 03:36:19;;;;;;;1.85;0.28;;;20.60;57.60;;;;;;4976844;28;20396;-86
2021/06/09 03:39:05;;;;;;;0.77;0.30;;;20.50;57.60;;;;;;4978222;28;20041;-85
2021/06/09 03:41:36;;;;;;;0.28;0.10;;;20.40;57.70;;;;;;4975933;28;20040;-84
2021/06/09 03:44:02;;;;;;;0.40;0.10;;;20.40;57.70;;;;;;4971860;28;20469;-84
2021/06/09 03:46:29;;;;;;;1.08;0.20;;;20.40;57.80;;;;;;4992748;28;20043;-84
2021/06/09 03:48:56;;;;;;;0.88;0.30;;;20.40;57.80;;;;;;4988441;28;20026;-84
2021/06/09 03:51:23;;;;;;;0.68;0.30;;;20.40;57.90;;;;;;4972190;28;20034;-84
2021/06/09 03:53:49;;;;;;;4.00;0.47;;;20.40;57.90;;;;;;4988088;28;20085;-85
2021/06/09 03:56:16;;;;;;;0.90;0.28;;;20.30;57.90;;;;;;4971826;28;20026;-85
2021/06/09 03:58:42;;;;;;;2.03;0.20;;;20.30;57.90;;;;;;4972487;28;20035;-84
2021/06/09 04:01:08;;;;;;;0.73;0.20;;;20.30;57.90;;;;;;4956406;28;20487;-84
2021/06/09 04:03:35;;;;;;;0.60;0.22;;;20.30;58.00;;;;;;4972023;28;20027;-84
2021/06/09 04:06:01;;;;;;;0.30;0.10;;;20.30;58.10;;;;;;4971919;28;20043;-83
2021/06/09 04:08:27;;;;;;;0.35;0.10;;;20.30;58.10;;;;;;4972281;28;20361;-84
2021/06/09 04:10:53;;;;;;;0.40;0.25;;;20.20;58.10;;;;;;4971747;28;20039;-84
2021/06/09 04:13:20;;;;;;;0.57;0.20;;;20.20;58.20;;;;;;4988696;28;20038;-86
2021/06/09 04:15:46;;;;;;;0.40;0.17;;;20.20;58.20;;;;;;4952747;28;20489;-84
2021/06/09 04:18:12;;;;;;;0.50;0.20;;;20.20;58.20;;;;;;4966970;28;20472;-85
2021/06/09 04:20:38;;;;;;;2.10;0.40;;;20.20;58.20;;;;;;4971987;28;20035;-84
2021/06/09 04:23:05;;;;;;;0.77;0.20;;;20.20;58.20;;;;;;4971906;28;20027;-84
2021/06/09 04:25:31;;;;;;;0.75;0.15;;;20.20;58.20;;;;;;4986613;28;20486;-84
2021/06/09 04:27:57;;;;;;;1.27;0.20;;;20.20;58.20;;;;;;4959012;28;20429;-84
2021/06/09 04:30:23;;;;;;;0.20;0.10;;;20.20;58.30;;;;;;4978372;28;20038;-84
2021/06/09 04:32:50;;;;;;;0.85;0.30;;;20.10;58.30;;;;;;4989298;28;20026;-86
2021/06/09 04:35:16;;;;;;;0.60;0.20;;;20.20;58.40;;;;;;4978516;28;20031;-84
2021/06/09 04:37:42;;;;;;;0.50;0.20;;;20.20;58.40;;;;;;4978578;28;20030;-85
2021/06/09 04:40:14;;;;;;;0.40;0.10;;;20.20;58.40;;;;;;5012743;28;20468;-84
2021/06/09 04:42:42;;;;;;;0.32;0.13;;;20.20;58.40;;;;;;4980987;28;20484;-84
2021/06/09 04:45:10;;;;;;;0.40;0.10;;;20.20;58.40;;;;;;4979175;28;20058;-84
2021/06/09 04:47:36;;;;;;;0.57;0.20;;;20.20;58.30;;;;;;4975603;28;20408;-84
2021/06/09 04:50:02;;;;;;;1.80;0.50;;;20.30;58.30;;;;;;4975597;28;20038;-84
2021/06/09 04:52:29;;;;;;;0.57;0.17;;;20.40;58.20;;;;;;4976307;28;20484;-84
2021/06/09 04:54:55;;;;;;;3.70;0.20;;;20.50;58.20;;;;;;4975082;28;20034;-84
2021/06/09 04:57:21;;;;;;;0.50;0.15;;;20.50;58.20;;;;;;4959041;28;20054;-83
2021/06/09 04:59:47;;;;;;;1.52;0.35;;;20.50;58.10;;;;;;4976548;28;20034;-84
2021/06/09 05:02:13;;;;;;;0.52;0.30;;;20.50;58.30;;;;;;4988498;28;20404;-84
2021/06/09 05:04:39;;;;;;;0.43;0.17;;;20.40;58.50;;;;;;4978397;28;20038;-84
2021/06/09 05:07:05;;;;;;;0.20;0.08;;;20.30;58.60;;;;;;5012367;28;20388;-83
2021/06/09 05:09:31;;;;;;;1.35;0.40;;;20.30;58.70;;;;;;4980254;28;20031;-84
2021/06/09 05:12:30;;;;;;;0.50;0.20;;;20.30;58.70;;;;;;4979410;28;20391;-84
2021/06/09 05:15:07;;;;;;;1.48;0.30;;;20.30;58.60;;;;;;4949813;29;20397;-84
2021/06/09 05:17:41;;;;;;;1.13;0.20;;;20.50;58.50;;;;;;4918955;29;20066;-84
2021/06/09 05:20:08;;;;;;;0.57;0.22;;;20.70;58.20;;;;;;4938468;29;20051;-84
2021/06/09 05:22:37;;;;;;;0.43;0.22;;;20.90;57.90;;;;;;4935311;29;20055;-84
2021/06/09 05:25:04;;;;;;;0.63;0.10;;;21.00;57.70;;;;;;4954726;28;20069;-83
2021/06/09 05:27:30;;;;;;;0.25;0.00;;;21.10;57.50;;;;;;4950300;29;20432;-84
2021/06/09 05:29:57;;;;;;;1.00;0.30;;;21.20;57.40;;;;;;4938076;29;20040;-83
2021/06/09 05:32:23;;;;;;;0.20;0.10;;;21.20;57.40;;;;;;4937965;28;20382;-84
2021/06/09 05:34:49;;;;;;;0.70;0.25;;;21.30;57.30;;;;;;4921225;29;20036;-84
2021/06/09 05:37:15;;;;;;;0.80;0.17;;;21.30;57.30;;;;;;4967599;28;20043;-84
2021/06/09 05:39:41;;;;;;;0.77;0.30;;;21.30;57.30;;;;;;4965983;28;20042;-84
2021/06/09 05:42:14;;;;;;;0.10;0.00;;;21.30;57.30;;;;;;4954159;29;20031;-84
2021/06/09 05:44:44;;;;;;;0.10;0.00;;;21.20;57.40;;;;;;4953898;29;20047;-83
2021/06/09 05:47:10;;;;;;;1.33;0.10;;;21.10;57.70;;;;;;4969114;28;20043;-84
2021/06/09 05:49:36;;;;;;;2.70;0.40;;;21.00;57.90;;;;;;4951253;29;20034;-84
2021/06/09 05:52:02;;;;;;;0.68;0.10;;;20.90;58.10;;;;;;4956322;29;20039;-84
2021/06/09 05:54:34;;;;;;;0.68;0.15;;;20.90;58.10;;;;;;4970581;28;20046;-83
2021/06/09 05:57:04;;;;;;;0.75;0.13;;;20.90;58.70;;;;;;4987097;28;20027;-85
2021/06/09 05:59:30;;;;;;;0.60;0.20;;;20.90;58.10;;;;;;4956431;28;20038;-85
2021/06/09 06:01:56;;;;;;;1.55;0.38;;;20.90;58.10;;;;;;4969613;28;20388;-84
2021/06/09 06:04:22;;;;;;;1.55;0.17;;;21.00;58.10;;;;;;4990840;28;20042;-84
2021/06/09 06:06:49;;;;;;;0.57;0.10;;;20.90;58.20;;;;;;4973671;28;20488;-84
2021/06/09 06:09:16;;;;;;;0.82;0.38;;;20.90;58.30;;;;;;4973833;28;20030;-84
2021/06/09 06:11:42;;;;;;;0.77;0.20;;;20.80;58.40;;;;;;4973935;28;20042;-84
2021/06/09 06:14:10;;;;;;;1.05;0.30;;;20.80;58.50;;;;;;4974063;28;20042;-84
2021/06/09 06:16:37;;;;;;;1.65;0.35;;;20.70;58.60;;;;;;4986468;28;20737;-84
2021/06/09 06:19:04;;;;;;;0.85;0.38;;;20.70;58.60;;;;;;5010463;28;20464;-84
2021/06/09 06:21:30;;;;;;;0.50;0.20;;;20.70;58.70;;;;;;5010158;28;20031;-85
2021/06/09 06:23:56;;;;;;;0.50;0.25;;;20.80;58.80;;;;;;5010608;28;20053;-84
2021/06/09 06:26:23;;;;;;;0.70;0.20;;;20.80;58.70;;;;;;4958920;28;20050;-85
2021/06/09 06:28:49;;;;;;;1.05;0.50;;;20.90;58.60;;;;;;4975721;28;20043;-84
2021/06/09 06:31:26;;;;;;;0.22;0.15;;;21.00;58.40;;;;;;5008538;28;20506;-84
2021/06/09 06:33:56;;;;;;;0.60;0.30;;;21.20;58.20;;;;;;4954601;28;20473;-84
2021/06/09 06:36:26;;;;;;;0.35;0.10;;;21.30;57.90;;;;;;4984304;28;20034;-84
2021/06/09 06:38:52;;;;;;;0.25;0.10;;;21.50;57.70;;;;;;4974699;28;20031;-84
2021/06/09 06:41:18;;;;;;;0.30;0.10;;;21.80;57.30;;;;;;4973570;28;20035;-84
2021/06/09 06:43:44;;;;;;;2.50;0.50;;;22.20;56.80;;;;;;4973548;28;20392;-84
2021/06/09 06:46:12;;;;;;;0.17;0.10;;;22.50;56.30;;;;;;4973191;28;20049;-83
2021/06/09 06:48:39;;;;;;;1.00;0.30;;;22.90;55.90;;;;;;4989010;28;20019;-84
2021/06/09 06:51:05;;;;;;;0.25;0.17;;;23.10;55.50;;;;;;4988998;28;20038;-84
2021/06/09 06:53:31;;;;;;;0.52;0.20;;;23.40;55.30;;;;;;4973149;28;20030;-84
2021/06/09 06:55:59;;;;;;;0.30;0.00;;;23.50;55.00;;;;;;4973338;28;20038;-85
2021/06/09 06:58:26;;;;;;;0.22;0.10;;;23.60;54.80;;;;;;4973605;28;20042;-84
2021/06/09 07:00:52;;;;;;;0.32;0.10;;;23.60;54.80;;;;;;4979270;28;20043;-84
2021/06/09 07:03:18;;;;;;;1.15;0.38;;;23.50;55.00;;;;;;4982845;28;20023;-84
2021/06/09 07:05:44;;;;;;;0.40;0.20;;;23.40;55.20;;;;;;4976974;28;20365;-84
2021/06/09 07:08:11;;;;;;;2.45;0.40;;;23.40;55.30;;;;;;4973563;28;20379;-85
2021/06/09 07:10:37;;;;;;;0.57;0.10;;;23.30;55.40;;;;;;4977943;28;20511;-85
2021/06/09 07:13:05;;;;;;;0.60;0.30;;;23.30;55.50;;;;;;4993565;28;20390;-84
2021/06/09 07:15:31;;;;;;;0.47;0.10;;;23.30;55.50;;;;;;4992577;28;20047;-85
2021/06/09 07:17:57;;;;;;;0.35;0.10;;;23.50;55.40;;;;;;4972658;28;20031;-85
2021/06/09 07:20:24;;;;;;;0.47;0.10;;;23.80;55.00;;;;;;4972546;28;20034;-86
2021/06/09 07:22:52;;;;;;;0.68;0.25;;;24.20;54.40;;;;;;4972743;28;20023;-85
2021/06/09 07:25:18;;;;;;;0.73;0.20;;;24.40;54.00;;;;;;4974317;28;20366;-85
2021/06/09 07:27:50;;;;;;;0.75;0.30;;;24.60;53.80;;;;;;4972763;28;20377;-85
2021/06/09 07:30:17;;;;;;;0.43;0.10;;;24.80;53.60;;;;;;4975168;28;20365;-85
2021/06/09 07:32:45;;;;;;;0.70;0.22;;;25.20;53.20;;;;;;4986918;28;20495;-85
2021/06/09 07:35:12;;;;;;;0.70;0.20;;;25.50;52.90;;;;;;4972983;28;20388;-85
2021/06/09 07:37:42;;;;;;;1.10;0.30;;;25.80;52.50;;;;;;4975998;28;20042;-86
2021/06/09 07:40:11;;;;;;;1.55;0.20;;;26.20;51.80;;;;;;5008816;28;20026;-85
2021/06/09 07:42:38;;;;;;;0.57;0.10;;;26.50;51.70;;;;;;4992472;28;20043;-85
2021/06/09 07:45:08;;;;;;;0.43;0.13;;;26.70;51.40;;;;;;4992248;28;20023;-85
2021/06/09 07:47:34;;;;;;;1.00;0.10;;;27.00;51.20;;;;;;4988368;28;20030;-85
2021/06/09 07:50:02;;;;;;;0.77;0.20;;;27.20;51.00;;;;;;4971938;28;20026;-86
2021/06/09 07:52:28;;;;;;;0.65;0.20;;;27.40;50.80;;;;;;4988868;28;20035;-85
2021/06/09 07:54:54;;;;;;;1.20;0.10;;;27.70;50.70;;;;;;4953023;28;20489;-85
2021/06/09 07:57:21;;;;;;;0.30;0.10;;;27.90;50.40;;;;;;4966856;28;20034;-85
2021/06/09 07:59:48;;;;;;;0.30;0.10;;;28.20;50.20;;;;;;4971456;28;20042;-86
2021/06/09 08:02:19;;;;;;;0.50;0.15;;;28.40;49.90;;;;;;4985145;28;20034;-85
2021/06/09 08:04:45;;;;;;;0.60;0.20;;;28.50;49.70;;;;;;4974268;28;20033;-85
2021/06/09 08:07:11;;;;;;;0.30;0.10;;;28.40;49.60;;;;;;4992963;28;20038;-85
2021/06/09 08:09:37;;;;;;;8.07;0.20;;;28.50;49.80;;;;;;5009030;28;20039;-85
2021/06/09 08:12:05;;;;;;;1.88;0.20;;;28.60;49.70;;;;;;4992496;28;20040;-85
2021/06/09 08:14:32;;;;;;;0.40;0.00;;;28.80;49.50;;;;;;4991402;28;20049;-86
2021/06/09 08:16:59;;;;;;;1.08;0.30;;;28.90;49.30;;;;;;4972149;28;20408;-86
2021/06/09 08:19:25;;;;;;;0.63;0.10;;;29.10;49.20;;;;;;4988488;28;20037;-86
2021/06/09 08:21:51;;;;;;;0.20;0.03;;;29.30;49.00;;;;;;4988136;28;20041;-86
2021/06/09 08:24:17;;;;;;;0.35;0.00;;;29.50;48.90;;;;;;4973351;28;20407;-86
2021/06/09 08:26:43;;;;;;;0.30;0.10;;;29.60;48.70;;;;;;4973029;28;20051;-86
2021/06/09 08:29:09;;;;;;;0.40;0.10;;;29.80;48.50;;;;;;4973253;28;20396;-86
2021/06/09 08:31:36;;;;;;;0.40;0.10;;;30.00;48.20;;;;;;4985494;28;20030;-86
2021/06/09 08:34:02;;;;;;;0.30;0.10;;;30.10;48.00;;;;;;5008440;28;20023;-86
2021/06/09 08:36:29;;;;;;;0.10;0.00;;;30.20;47.70;;;;;;5008751;28;20472;-85
2021/06/09 08:38:56;;;;;;;0.75;0.25;;;30.30;47.60;;;;;;4977260;28;20418;-86
2021/06/09 08:41:30;;;;;;;1.02;0.10;;;30.50;47.40;;;;;;4973846;28;20031;-85
2021/06/09 08:43:57;;;;;;;0.45;0.10;;;30.50;47.10;;;;;;4972642;28;20026;-86
2021/06/09 08:46:23;;;;;;;3.55;0.30;;;30.70;47.00;;;;;;5008177;28;20054;-86
2021/06/09 08:48:50;;;;;;;0.57;0.10;;;30.70;46.80;;;;;;4987705;28;20388;-86
2021/06/09 08:51:17;;;;;;;0.50;0.20;;;30.80;46.70;;;;;;4987931;28;20373;-86
2021/06/09 08:53:49;;;;;;;0.60;0.10;;;30.80;46.50;;;;;;4971588;28;20049;-86
2021/06/09 08:56:15;;;;;;;0.25;0.00;;;30.90;46.40;;;;;;4987791;28;20054;-86
2021/06/09 08:58:41;;;;;;;0.95;0.20;;;30.90;46.30;;;;;;4971918;28;20035;-86
2021/06/09 09:01:08;;;;;;;0.38;0.13;;;31.00;46.00;;;;;;4980093;28;20037;-86
2021/06/09 09:03:38;;;;;;;0.22;0.00;;;31.00;45.90;;;;;;4979378;28;20027;-86
2021/06/09 09:06:04;;;;;;;0.35;0.15;;;31.10;45.80;;;;;;4975823;28;20035;-86
2021/06/09 09:08:31;;;;;;;0.60;0.10;;;31.10;45.60;;;;;;4974844;28;20039;-86
2021/06/09 09:10:57;;;;;;;0.35;0.20;;;31.20;45.50;;;;;;4973508;28;20034;-86
2021/06/09 09:13:26;;;;;;;0.90;0.10;;;31.30;45.40;;;;;;4981153;28;20030;-86
2021/06/09 09:15:52;;;;;;;1.10;0.10;;;31.30;45.20;;;;;;4978710;28;20031;-87
2021/06/09 09:18:18;;;;;;;0.13;0.00;;;31.40;45.00;;;;;;4974987;28;20030;-87
2021/06/09 09:20:47;;;;;;;0.52;0.10;;;31.40;44.90;;;;;;4975055;28;20038;-86
2021/06/09 09:23:20;;;;;;;1.75;0.70;;;31.50;44.90;;;;;;4974987;28;20385;-87
2021/06/09 09:25:46;;;;;;;0.20;0.00;;;31.70;44.70;;;;;;4976124;28;20046;-86
2021/06/09 09:28:30;;;;;;;0.63;0.05;;;31.80;44.50;;;;;;4975285;28;20023;-87
2021/06/09 09:31:16;;;;;;;0.60;0.20;;;32.00;44.40;;;;;;4974108;28;20035;-86
2021/06/09 09:33:43;;;;;;;0.65;0.10;;;32.10;44.20;;;;;;4990981;28;20472;-86
2021/06/09 09:36:30;;;;;;;1.95;0.30;;;32.20;44.10;;;;;;4974625;28;20031;-87
2021/06/09 09:38:57;;;;;;;1.02;0.25;;;32.20;44.10;;;;;;4974786;28;20034;-86
2021/06/09 09:41:28;;;;;;;0.90;0.30;;;32.20;44.10;;;;;;4973583;28;20047;-87
2021/06/09 09:44:01;;;;;;;0.50;0.20;;;32.10;44.10;;;;;;4974632;28;20038;-86
2021/06/09 09:46:33;;;;;;;0.50;0.10;;;32.10;44.00;;;;;;4990189;28;20535;-87
2021/06/09 09:49:15;;;;;;;0.32;0.13;;;32.20;44.00;;;;;;4975531;28;20023;-87
2021/06/09 09:51:44;;;;;;;0.68;0.10;;;32.20;44.00;;;;;;4958421;28;20039;-86
2021/06/09 09:54:11;;;;;;;0.50;0.17;;;32.20;44.00;;;;;;4974129;28;20046;-86
2021/06/09 09:56:38;;;;;;;0.20;0.10;;;32.30;44.00;;;;;;4974487;28;20042;-86
2021/06/09 09:59:09;;;;;;;0.75;0.30;;;32.30;44.00;;;;;;4958575;28;20033;-86
2021/06/09 10:01:39;;;;;;;3.05;0.40;;;32.30;44.00;;;;;;4986595;28;20034;-86
2021/06/09 10:04:06;;;;;;;1.02;0.13;;;32.30;44.00;;;;;;4990384;28;20385;-86
2021/06/09 10:06:38;;;;;;;1.05;0.40;;;32.30;43.90;;;;;;4974184;28;20043;-86
2021/06/09 10:09:09;;;;;;;0.28;0.05;;;32.30;43.90;;;;;;4973943;28;20037;-86
2021/06/09 10:11:38;;;;;;;0.75;0.40;;;32.30;43.90;;;;;;4974158;28;20035;-87
2021/06/09 10:14:25;;;;;;;1.17;0.20;;;32.30;43.80;;;;;;4958259;28;20027;-86
2021/06/09 10:17:18;;;;;;;1.08;0.15;;;32.50;43.60;;;;;;5004291;28;20034;-87
2021/06/09 10:19:48;;;;;;;1.48;0.22;;;32.70;43.40;;;;;;4972525;28;20054;-87
2021/06/09 10:22:25;;;;;;;0.40;0.20;;;32.70;43.20;;;;;;4989200;28;20034;-87
2021/06/09 10:25:02;;;;;;;0.80;0.15;;;32.70;43.40;;;;;;4973752;28;20035;-87
2021/06/09 10:27:53;;;;;;;1.65;0.28;;;32.80;43.40;;;;;;4973723;28;20050;-86
2021/06/09 10:30:28;;;;;;;;;;;32.90;43.30;;;;;;4977079;28;20030;-88
2021/06/09 10:32:56;;;;;;;0.10;0.00;;;33.00;43.20;;;;;;5019427;28;20382;-87
2021/06/09 10:35:25;;;;;;;0.90;0.22;;;33.00;43.10;;;;;;4976991;28;20035;-87
2021/06/09 10:37:53;;;;;;;0.20;0.10;;;33.00;43.10;;;;;;4975300;28;20045;-87
2021/06/09 10:40:19;;;;;;;0.88;0.30;;;32.90;43.10;;;;;;5010666;28;20440;-86
2021/06/09 10:42:48;;;;;;;0.63;0.20;;;33.00;43.20;;;;;;4993246;28;20023;-85
2021/06/09 10:45:17;;;;;;;0.47;0.17;;;32.90;43.20;;;;;;4993019;28;20042;-87
2021/06/09 10:47:45;;;;;;;1.05;0.30;;;33.00;43.10;;;;;;4989413;28;20046;-87
2021/06/09 10:50:11;;;;;;;1.10;0.20;;;32.90;43.00;;;;;;4973404;28;20035;-87
2021/06/09 10:52:40;;;;;;;0.30;0.10;;;32.90;43.20;;;;;;4974772;28;20035;-87
2021/06/09 10:55:08;;;;;;;0.50;0.10;;;32.90;43.20;;;;;;4973526;28;20031;-87
2021/06/09 10:57:34;;;;;;;1.25;0.30;;;33.00;43.10;;;;;;4972894;28;20035;-87
2021/06/09 11:00:00;;;;;;;0.70;0.28;;;33.10;43.00;;;;;;4973269;28;20039;-87
2021/06/09 11:02:26;;;;;;;4.65;0.22;;;33.10;42.90;;;;;;4987840;28;20050;-87
2021/06/09 11:04:54;;;;;;;0.47;0.20;;;33.20;42.80;;;;;;4974497;28;20041;-87
2021/06/09 11:07:56;;;;;;;0.20;0.10;;;33.20;42.70;;;;;;4994008;28;20043;-86
2021/06/09 11:10:41;;;;;;;0.80;0.30;;;33.30;42.60;;;;;;4918385;29;20151;-87
2021/06/09 11:13:09;;;;;;;0.70;0.20;;;33.40;42.50;;;;;;4933382;29;20490;-86
2021/06/09 11:15:35;;;;;;;0.95;0.30;;;33.40;42.40;;;;;;4928478;29;20444;-86
2021/06/09 11:18:14;;;;;;;0.50;0.20;;;33.40;42.30;;;;;;4912503;28;20039;-87
2021/06/09 11:20:42;;;;;;;0.45;0.20;;;33.40;42.20;;;;;;4935271;29;20030;-87
2021/06/09 11:23:13;;;;;;;0.60;0.20;;;33.50;42.20;;;;;;4935864;29;20035;-87
2021/06/09 11:25:43;;;;;;;4.40;0.30;;;33.60;42.10;;;;;;4933608;29;20043;-87
2021/06/09 11:28:10;;;;;;;;;;;33.60;42.00;;;;;;4918606;29;20063;-86
2021/06/09 11:30:37;;;;;;;0.65;0.10;;;33.50;41.90;;;;;;4945692;28;19925;-86
2021/06/09 11:33:05;;;;;;;1.65;0.45;;;33.50;42.00;;;;;;4950784;29;20030;-87
2021/06/09 11:35:50;;;;;;;0.20;0.10;;;33.50;42.00;;;;;;4920070;29;20046;-86
2021/06/09 11:38:23;;;;;;;1.48;0.35;;;33.50;41.80;;;;;;4922705;29;20062;-86
2021/06/09 11:40:58;;;;;;;0.38;0.10;;;33.60;41.80;;;;;;4934261;29;20035;-86
2021/06/09 11:43:58;;;;;;;0.90;0.30;;;33.40;41.60;;;;;;4949120;29;20055;-86
2021/06/09 11:46:26;;;;;;;0.38;0.10;;;33.30;41.80;;;;;;4967610;28;20046;-86
2021/06/09 11:48:59;;;;;;;1.85;0.20;;;33.20;41.80;;;;;;4972360;28;20027;-86
2021/06/09 11:51:28;;;;;;;0.60;0.20;;;33.20;41.70;;;;;;4987626;28;20030;-86
2021/06/09 11:53:57;;;;;;;0.57;0.25;;;33.20;41.70;;;;;;4988334;28;20487;-87
2021/06/09 11:56:27;;;;;;;0.20;0.05;;;33.20;41.60;;;;;;4971907;28;20042;-87
2021/06/09 11:58:55;;;;;;;;;;;33.20;41.50;;;;;;4972416;28;20050;-86
2021/06/09 12:01:21;;;;;;;0.43;0.10;;;33.20;41.40;;;;;;4988293;28;19921;-87
2021/06/09 12:04:16;;;;;;;1.08;0.20;;;33.20;41.50;;;;;;4988403;28;20027;-86
2021/06/09 12:06:44;;;;;;;0.25;0.10;;;33.30;41.30;;;;;;4973146;28;20380;-86
2021/06/09 12:09:11;;;;;;;10.45;0.13;;;33.30;41.20;;;;;;4955230;28;20026;-86
2021/06/09 12:11:38;;;;;;;1.55;0.22;;;33.30;41.10;;;;;;4971998;28;20031;-86
2021/06/09 12:14:25;;;;;;;0.38;0.10;;;33.30;41.00;;;;;;4956706;28;20023;-86
2021/06/09 12:16:56;;;;;;;0.75;0.30;;;33.20;40.80;;;;;;4971118;28;20046;-86
2021/06/09 12:19:28;;;;;;;1.35;0.20;;;33.30;40.90;;;;;;4988596;28;20048;-86
2021/06/09 12:21:55;;;;;;;0.77;0.20;;;33.30;40.70;;;;;;4987932;28;20042;-87
2021/06/09 12:24:21;;;;;;;0.20;0.00;;;33.40;40.60;;;;;;4987664;28;20197;-86
2021/06/09 12:27:08;;;;;;;0.70;0.20;;;33.50;40.40;;;;;;4972934;28;20050;-86
2021/06/09 12:29:35;;;;;;;0.40;0.30;;;33.60;40.00;;;;;;4973204;28;20027;-86
2021/06/09 12:32:20;;;;;;;0.20;0.10;;;33.60;40.00;;;;;;4983890;28;20038;-86
2021/06/09 12:34:55;;;;;;;0.57;0.15;;;33.70;39.90;;;;;;5013053;28;20030;-86
2021/06/09 12:37:21;;;;;;;0.40;0.10;;;33.70;39.80;;;;;;4976463;28;20031;-86
2021/06/09 12:40:02;;;;;;;0.40;0.10;;;33.70;39.70;;;;;;4958678;28;20050;-86
2021/06/09 12:42:28;;;;;;;0.98;0.13;;;33.60;39.70;;;;;;4977155;28;20031;-86
2021/06/09 12:44:55;;;;;;;0.20;0.00;;;33.60;39.80;;;;;;4975862;28;20027;-86
2021/06/09 12:47:29;;;;;;;1.85;0.10;;;33.50;39.80;;;;;;4974801;28;20043;-87
2021/06/09 12:50:10;;;;;;;0.40;0.10;;;33.50;39.70;;;;;;4975689;28;20457;-87
2021/06/09 12:52:36;;;;;;;0.77;0.10;;;33.50;40.40;;;;;;4973533;28;20499;-86
2021/06/09 12:55:08;;;;;;;0.45;0.10;;;33.50;39.70;;;;;;4991368;28;20023;-87
2021/06/09 12:57:35;;;;;;;0.55;0.10;;;33.50;39.50;;;;;;4991016;28;20420;-86
2021/06/09 13:00:17;;;;;;;0.65;0.30;;;33.60;39.50;;;;;;4991522;28;20019;-86